»·PEaware :: N9166J PHNY-PHNL

N9166J :: PHNY-PHNL

FLIGHT INFORMATION

Flight Status: Arrived
Operator: Privately registered:
United States
More flights under this callsign
Pilot: Anonymous 11620 (11620)
Aircraft: PIPER PA-28R-201 ARROW
(P28R)
More flights by this aircraft type
Origin: PHNY Lanai City
United States
Destination: PHNL Honolulu Intl
United States
More flights between these airports :: More routes between these airports
Route: DIRECT RNAV Z RWY 04L
File this flight plan on PilotEdge
Remarks:
Altitude:
(Current/Filed)
4,500ft
Speed:
(Current/Filed)
130kts
Departed: 10-Jan-18 03:04 PM
Arrived: 10-Jan-18 04:33 PM
Distance/Time
Traveled:
63nm/1:29
Distance/Time
To Go:
Arrived

Flight Plot

Page will automatically refresh every two minutes.

Flight plan parsing failed; only flown route is shown


Map Options




Map Legend


Flown Route
Filed Route
Departure Airport
Arrival Airport
Navaid (VOR, NDB)
Fix

Horizontal Profiles

Position Reports

Time Latitude Longitude Heading Altitude Ground
Speed
10-Jan-18 15:09 20.780898 -156.956343 39 1311ft 13kts
10-Jan-18 15:10 20.798787 -156.948973 310 2321ft 91kts
10-Jan-18 15:11 20.800454 -156.974263 275 3823ft 87kts
10-Jan-18 15:12 20.806948 -157.002056 289 4568ft 124kts
10-Jan-18 15:13 20.821566 -157.037675 294 4558ft 133kts
10-Jan-18 15:14 20.838274 -157.073409 299 4555ft 135kts
10-Jan-18 15:15 20.855554 -157.108945 298 4551ft 134kts
10-Jan-18 15:16 20.872761 -157.144214 298 4547ft 133kts
10-Jan-18 15:17 20.889909 -157.179354 297 4541ft 132kts
10-Jan-18 15:18 20.906940 -157.214454 299 4516ft 134kts
10-Jan-18 15:19 20.924155 -157.249701 299 4512ft 134kts
10-Jan-18 15:20 20.941461 -157.285221 299 4508ft 134kts
10-Jan-18 15:21 20.958747 -157.320736 300 4504ft 134kts
10-Jan-18 15:22 20.976063 -157.356334 300 4503ft 135kts
10-Jan-18 15:23 20.993376 -157.391955 300 4503ft 135kts
10-Jan-18 15:24 21.010696 -157.427616 300 4503ft 135kts
10-Jan-18 15:25 21.028051 -157.463365 299 4502ft 135kts
10-Jan-18 15:26 21.045315 -157.499327 299 4499ft 136kts
10-Jan-18 15:27 21.062597 -157.535633 299 4497ft 137kts
10-Jan-18 15:28 21.080150 -157.571968 299 4494ft 137kts
10-Jan-18 15:29 21.097769 -157.608435 298 4491ft 138kts
10-Jan-18 15:30 21.115296 -157.644726 298 4490ft 138kts
10-Jan-18 15:31 21.133018 -157.681464 297 4486ft 139kts
10-Jan-18 15:32 21.150707 -157.718157 298 4485ft 138kts
10-Jan-18 15:33 21.168436 -157.754946 298 4484ft 138kts
10-Jan-18 15:34 21.186075 -157.791572 298 4484ft 138kts
10-Jan-18 15:35 21.203724 -157.828246 298 4484ft 138kts
10-Jan-18 15:36 21.221345 -157.864888 298 4485ft 138kts
10-Jan-18 15:37 21.239030 -157.901686 297 4486ft 138kts
10-Jan-18 15:38 21.244022 -157.938664 221 4485ft 141kts
10-Jan-18 15:39 21.210480 -157.960492 208 4488ft 141kts
10-Jan-18 15:40 21.175686 -157.980277 208 4489ft 141kts
10-Jan-18 15:41 21.142998 -158.003141 232 4487ft 140kts
10-Jan-18 15:42 21.134193 -158.042195 281 4489ft 137kts
10-Jan-18 15:43 21.154458 -158.075055 325 4491ft 135kts
10-Jan-18 15:44 21.190631 -158.082095 10 4491ft 137kts
10-Jan-18 15:45 21.220759 -158.058271 53 4491ft 139kts
10-Jan-18 15:46 21.243591 -158.024820 51 4490ft 138kts
10-Jan-18 15:47 21.267327 -157.992411 50 4489ft 138kts
10-Jan-18 15:48 21.290721 -157.959780 51 4488ft 137kts
10-Jan-18 15:49 21.313814 -157.927116 60 4481ft 138kts
10-Jan-18 15:50 21.335897 -157.895193 69 4480ft 137kts
10-Jan-18 15:51 21.358574 -157.863182 47 4483ft 136kts
10-Jan-18 15:52 21.381523 -157.830604 51 4483ft 136kts
10-Jan-18 15:53 21.404352 -157.798184 51 4482ft 136kts
10-Jan-18 15:54 21.427156 -157.765780 50 4480ft 136kts
10-Jan-18 15:55 21.449807 -157.733573 50 4480ft 135kts
10-Jan-18 15:56 21.472505 -157.701284 50 4479ft 135kts
10-Jan-18 15:57 21.495136 -157.669072 50 4477ft 135kts
10-Jan-18 15:58 21.517757 -157.636853 50 4477ft 135kts
10-Jan-18 15:59 21.540386 -157.604604 50 4477ft 135kts
10-Jan-18 16:00 21.563003 -157.572352 50 4477ft 135kts
10-Jan-18 16:01 21.585606 -157.540103 50 4477ft 135kts
10-Jan-18 16:02 21.608238 -157.507792 50 4477ft 135kts
10-Jan-18 16:03 21.629731 -157.477090 50 4477ft 135kts
10-Jan-18 16:04 21.651933 -157.445358 50 4477ft 135kts
10-Jan-18 16:05 21.675281 -157.411967 50 4479ft 135kts
10-Jan-18 16:06 21.698532 -157.378695 50 4483ft 135kts
10-Jan-18 16:07 21.721082 -157.346497 48 4486ft 134kts
10-Jan-18 16:08 21.734272 -157.311901 124 4478ft 144kts
10-Jan-18 16:09 21.708346 -157.327277 262 4489ft 139kts
10-Jan-18 16:10 21.697111 -157.367170 244 4486ft 142kts
10-Jan-18 16:11 21.674802 -157.402555 234 4481ft 143kts
10-Jan-18 16:12 21.649890 -157.435736 232 4478ft 143kts
10-Jan-18 16:13 21.624321 -157.468556 232 4477ft 143kts
10-Jan-18 16:14 21.598683 -157.501047 231 4477ft 143kts
10-Jan-18 16:15 21.572749 -157.533582 232 4477ft 143kts
10-Jan-18 16:16 21.547293 -157.565842 232 4477ft 143kts
10-Jan-18 16:17 21.521349 -157.598723 232 4477ft 143kts
10-Jan-18 16:18 21.495571 -157.631373 232 4477ft 143kts
10-Jan-18 16:19 21.470015 -157.663723 231 4477ft 143kts
10-Jan-18 16:20 21.444211 -157.696373 231 4478ft 143kts
10-Jan-18 16:21 21.418131 -157.729373 228 4443ft 145kts
10-Jan-18 16:22 21.392013 -157.762354 227 4446ft 145kts
10-Jan-18 16:23 21.365932 -157.795286 227 4448ft 144kts
10-Jan-18 16:24 21.340140 -157.827834 226 4451ft 143kts
10-Jan-18 16:25 21.314582 -157.860067 226 4453ft 141kts
10-Jan-18 16:26 21.289291 -157.891944 225 4456ft 139kts
10-Jan-18 16:27 21.264334 -157.923382 225 4458ft 137kts
10-Jan-18 16:28 21.234613 -157.946963 204 4459ft 133kts
10-Jan-18 16:29 21.201715 -157.965572 204 4460ft 133kts
10-Jan-18 16:30 21.168840 -157.984190 204 4460ft 133kts
10-Jan-18 16:31 21.139710 -158.008495 235 4459ft 138kts
10-Jan-18 16:32 21.135570 -158.048158 284 4614ft 142kts
10-Jan-18 16:33 21.165587 -158.081158 340 3454ft 167kts
10-Jan-18 16:34 21.208568 -158.073411 38 2404ft 161kts
10-Jan-18 16:35 21.235463 -158.036482 55 1591ft 149kts
10-Jan-18 16:36 21.259436 -158.003158 53 1581ft 139kts
10-Jan-18 16:37 21.283528 -157.969893 54 1342ft 149kts
10-Jan-18 16:38 21.308550 -157.935265 56 226ft 125kts
10-Jan-18 16:39 21.319154 -157.919514 59 16ft 26kts
10-Jan-18 16:40 21.318502 -157.916117 98 16ft 0kts

Navigation Log

Ident Type
Flight plan parsing failed, navigation log unavailable